Terminal Aerodrome Forecast
Issued by NWS

Home | Current Version | Previous Version | Text Only | Print | Product List | Glossary On
Versions: 1 2 3 4 5 6 7 8 9 10 11 12 13 14 15 16 17
000
FTUS42 KTAE 022300
TAFABY
TAF
KABY 022330Z 0300/0324 21003KT P6SM SCT040
     FM030400 10003KT 4SM BR OVC025
     FM031000 00000KT 2SM BR OVC002
     FM031600 14006KT P6SM OVC025
     FM032100 19009KT P6SM SCT025 BKN050=

USA.gov is the U.S. government's official web portal to all federal, state and local government web resources and services.